Athens, NY

9:36 PM EST on March 05, 2015 (GMT -0500)
Columbia-Greene Community College | Change Station
CLOSE
Current Station
Personal Weather Station
Location: Hudson, NY
Elevation: 161 ft
Nearby Weather Stations

Elev 161 ft 42.22 °N, 73.83 °W | Updated 18 seconds ago

Partly Cloudy
Partly Cloudy
12.0 °F
Feels Like -5 °F
N
16.0
Wind Variable Wind from ESE
Gusts 16.0 mph

Today
High -- | Low -- °F
--% Chance of Precip.
Yesterday
High -- | Low -- °F
Precip. -- in
6:24 AM 5:49 PM
Full, 100% visible
Pressure 30.27 in
Visibility 10.0 miles
Clouds Clear
Windchill -5 °F
Dew Point -3 °F
Humidity 52%
Rainfall in
Snow Depth Not available.
UV 0 out of 12
Pollen .40 out of 12
Air Quality Not available.
Flu Activity Not available.
METAR KPSF 060154Z AUTO 29010G18KT 10SM CLR M11/M18 A3020 RMK AO2 SLP250 T11061178

More Conditions Fewer Conditions

Pressure 30.27 in
Visibility 10.0 miles
Clouds Clear
Windchill -5 °F
Dew Point -3 °F
Humidity 52%
Rainfall in
Snow Depth Not available.
UV 0 out of 12
Pollen .40 out of 12
Air Quality Not available.
Flu Activity Not available.
METAR KPSF 060154Z AUTO 29010G18KT 10SM CLR M11/M18 A3020 RMK AO2 SLP250 T11061178

More Conditions Fewer Conditions

10-Day Weather Forecast

Almanac

Astronomy

Mar. 05, 2015 Rise Set
Actual Time
Civil Twilight
Nautical Twilight
Astronomical Twilight
Moon
Length of Visible Light
Length of Day
Tomorrow will be .
, % of the Moon is Illuminated

Today's Extremes

State Highs State Lows

Community

WunderPhotos

Upload Photos

1,803,126 photos uploaded!

WunderBlogs® & News

Nearby

Air Quality

  Air Quality AQ Index Pollutant
Not available.

Snow Depth

Station Depth Elevation

Earthquake Activity

City Distance Mag. Time & Date
Minimum magnitude displayed is 2.5.

Coastal Water Temperatures

Place Temperature

Nearby Weather Stations